Ancram, New York
Current Conditions -  °F | °C
As of 7:53 AM on Saturday 20 Dec 2014 (Local Time) from KPOU Reporting Station
Overcast Overcast  
Wind Chill: -6°   Ceiling: 3200
Heat Index: -2°   Visibility: 10mi
Dew Point: -8°   Wind: 7mph
Humidity: 66%   Direction: 30°NNE
Pressure: 30.29"   Gusts: NA
Location:  42.05°N, 73.64°W
Report Text: KPOU 201253Z AUTO 03006KT 10SM OVC032 M02/M08 A3029 RMK AO2 SLP255 T10221078 TSNO
Loading
Personal Weather Stations






























Interactive Weather Map New forecast layout! Learn more

10-Day Weather Forecast

Advertisements
Track Severe Weather on mobile